Time;durP1;ratioP1;P1;durP2;ratioP2;P2;SDS_P1;SDS_P2;PMS_P1;PMS_P2;Temp;Humidity;BMP_temperature;BMP_pressure;BME280_temperature;BME280_humidity;BME280_pressure;Samples;Min_cycle;Max_cycle;Signal;HPM_P1;HPM_P2
2021/09/21 00:00:28;;;;;;;3.95;2.28;;;;;;;7.07;76.00;99664.75;5087810;28;20111;-61
2021/09/21 00:02:53;;;;;;;4.32;2.30;;;;;;;7.01;76.23;99656.25;5083920;28;20120;-62
2021/09/21 00:05:19;;;;;;;3.53;2.55;;;;;;;7.02;76.57;99665.94;5082330;28;20507;-61
2021/09/21 00:07:46;;;;;;;3.05;2.30;;;;;;;7.13;76.15;99661.66;5078568;28;20413;-62
2021/09/21 00:10:13;;;;;;;3.40;2.38;;;;;;;7.14;76.13;99668.69;5089357;28;20517;-62
2021/09/21 00:12:39;;;;;;;2.72;2.45;;;;;;;6.84;76.28;99617.44;5078606;28;20023;-61
2021/09/21 00:15:08;;;;;;;2.95;2.20;;;;;;;7.06;76.78;99663.06;5083786;28;20025;-62
2021/09/21 00:17:34;;;;;;;2.88;2.10;;;;;;;7.16;75.75;99657.00;5083704;28;20032;-63
2021/09/21 00:20:00;;;;;;;2.65;2.15;;;;;;;7.09;76.38;99668.16;5076195;28;20043;-61
2021/09/21 00:22:26;;;;;;;2.75;2.20;;;;;;;7.07;76.61;99648.78;5089408;28;20024;-61
2021/09/21 00:24:52;;;;;;;3.15;2.33;;;;;;;7.11;76.37;99643.13;5079925;28;20111;-61
2021/09/21 00:27:22;;;;;;;2.08;1.88;;;;;;;7.17;75.79;99639.19;5081481;28;20086;-61
2021/09/21 00:29:47;;;;;;;2.35;1.63;;;;;;;7.18;75.86;99643.56;5086892;28;20028;-61
2021/09/21 00:32:16;;;;;;;2.42;1.90;;;;;;;7.03;76.37;99632.16;5075485;28;20060;-62
2021/09/21 00:34:43;;;;;;;3.35;1.60;;;;;;;7.20;75.59;99640.78;5086801;28;20027;-61
2021/09/21 00:37:14;;;;;;;2.70;2.05;;;;;;;7.26;75.48;99624.38;5081870;28;20135;-62
2021/09/21 00:39:41;;;;;;;4.15;1.98;;;;;;;7.12;75.88;99623.56;5078836;28;20064;-62
2021/09/21 00:42:08;;;;;;;3.63;2.05;;;;;;;7.14;75.45;99620.75;5093230;28;20105;-62
2021/09/21 00:44:35;;;;;;;3.03;2.25;;;;;;;7.13;76.29;99624.38;5069805;28;20032;-60
2021/09/21 00:47:11;;;;;;;3.45;2.17;;;;;;;7.24;76.17;99637.81;5079820;28;20417;-60
2021/09/21 00:49:37;;;;;;;2.90;2.00;;;;;;;6.92;76.53;99592.97;5079185;28;20492;-61
2021/09/21 00:52:03;;;;;;;2.60;1.85;;;;;;;6.99;77.24;99614.69;5091620;28;20027;-61
2021/09/21 00:54:30;;;;;;;2.33;1.90;;;;;;;7.14;76.33;99623.44;5088233;28;20024;-60
2021/09/21 00:56:56;;;;;;;2.47;1.80;;;;;;;6.87;76.62;99581.78;5080202;28;20032;-62
2021/09/21 00:59:22;;;;;;;1.90;1.65;;;;;;;7.09;76.56;99604.25;5079480;28;20484;-61
2021/09/21 01:01:48;;;;;;;2.60;2.00;;;;;;;7.12;76.45;99620.03;5087118;28;20064;-62
2021/09/21 01:04:15;;;;;;;2.53;1.98;;;;;;;7.07;76.73;99627.47;5075136;28;20435;-61
2021/09/21 01:06:40;;;;;;;2.35;2.08;;;;;;;7.19;76.26;99615.97;5094853;28;20019;-59
2021/09/21 01:09:18;;;;;;;2.83;1.70;;;;;;;7.13;76.57;99619.06;5096709;28;20047;-62
2021/09/21 01:11:46;;;;;;;3.72;2.13;;;;;;;7.06;76.95;99609.81;5097167;28;20032;-62
2021/09/21 01:14:11;;;;;;;2.20;1.90;;;;;;;7.18;76.79;99622.25;5073772;28;20037;-61
2021/09/21 01:16:37;;;;;;;2.08;1.33;;;;;;;7.46;75.13;99609.66;5104710;28;20518;-62
2021/09/21 01:19:04;;;;;;;2.63;2.10;;;;;;;7.22;75.87;99622.91;5099016;28;20486;-62
2021/09/21 01:21:29;;;;;;;2.13;1.80;;;;;;;7.18;76.31;99616.91;5079085;28;20480;-61
2021/09/21 01:23:56;;;;;;;2.53;1.25;;;;;;;7.43;75.17;99624.06;5087564;28;20107;-61
2021/09/21 01:26:24;;;;;;;2.35;1.67;;;;;;;7.24;76.01;99618.31;5075155;28;20380;-61
2021/09/21 01:28:51;;;;;;;2.15;1.83;;;;;;;7.21;76.15;99616.69;5085403;28;20132;-61
2021/09/21 01:31:17;;;;;;;3.08;2.15;;;;;;;7.12;76.87;99612.03;5090227;28;20035;-61
2021/09/21 01:33:50;;;;;;;2.53;1.88;;;;;;;7.23;76.73;99598.81;5077416;28;20025;-60
2021/09/21 01:36:18;;;;;;;3.60;2.13;;;;;;;7.23;76.30;99624.59;5088219;28;20074;-61
2021/09/21 01:38:45;;;;;;;2.83;2.15;;;;;;;7.23;75.75;99606.78;5077544;28;20032;-62
2021/09/21 01:41:10;;;;;;;2.03;1.58;;;;;;;7.22;76.12;99607.75;5081577;28;20044;-61
2021/09/21 01:43:36;;;;;;;1.70;1.30;;;;;;;7.37;75.57;99604.97;5096657;28;20163;-61
2021/09/21 01:46:01;;;;;;;2.70;1.50;;;;;;;7.21;76.17;99603.38;5102792;28;20034;-61
2021/09/21 01:48:27;;;;;;;2.10;1.60;;;;;;;7.20;76.63;99598.19;5105622;28;20075;-61
2021/09/21 01:50:59;;;;;;;2.13;1.48;;;;;;;7.26;76.27;99600.41;5090337;28;20035;-60
2021/09/21 01:58:52;;;;;;;2.97;1.40;;;;;;;7.25;76.34;99594.25;5091917;28;20033;-62
2021/09/21 02:01:21;;;;;;;2.97;1.80;;;;;;;7.37;75.87;99594.31;5099278;28;20043;-61
2021/09/21 02:03:48;;;;;;;2.28;1.30;;;;;;;7.25;76.60;99596.91;5075887;28;20488;-62
2021/09/21 02:06:15;;;;;;;1.55;1.02;;;;;;;7.33;75.68;99589.22;5095996;28;20126;-61
2021/09/21 02:08:41;;;;;;;1.25;1.08;;;;;;;7.39;75.52;99593.28;5105156;28;20112;-61
2021/09/21 02:11:06;;;;;;;1.88;1.58;;;;;;;7.23;76.52;99588.16;5081764;28;20480;-61
2021/09/21 02:13:32;;;;;;;2.47;1.50;;;;;;;7.16;76.81;99578.91;5085830;28;20460;-62
2021/09/21 02:15:58;;;;;;;1.40;1.30;;;;;;;6.90;77.17;99536.34;5107769;28;20067;-61
2021/09/21 02:18:23;;;;;;;2.47;1.50;;;;;;;7.21;77.07;99582.09;5085965;28;20035;-62
2021/09/21 02:20:49;;;;;;;1.55;1.25;;;;;;;7.31;76.11;99583.16;5075638;28;20031;-62
2021/09/21 02:23:14;;;;;;;4.15;1.50;;;;;;;7.38;75.59;99566.72;5080387;28;20044;-62
2021/09/21 02:25:40;;;;;;;1.50;1.40;;;;;;;7.15;76.66;99566.56;5084770;28;20574;-62
2021/09/21 02:28:05;;;;;;;1.88;1.50;;;;;;;7.15;76.48;99563.91;5073988;28;20461;-62
2021/09/21 02:30:31;;;;;;;1.50;1.20;;;;;;;7.32;75.96;99568.00;5085916;28;20032;-62
2021/09/21 02:32:56;;;;;;;1.45;1.30;;;;;;;7.23;76.22;99566.03;5078537;28;20584;-62
2021/09/21 02:35:22;;;;;;;1.83;1.55;;;;;;;7.33;75.95;99588.34;5090162;28;20407;-62
2021/09/21 02:37:48;;;;;;;1.85;1.60;;;;;;;7.27;76.31;99568.38;5074720;28;20101;-62
2021/09/21 02:40:15;;;;;;;2.55;1.80;;;;;;;7.23;76.63;99566.84;5084979;28;20122;-61
2021/09/21 02:42:41;;;;;;;1.65;1.48;;;;;;;7.24;76.78;99562.41;5076343;28;20016;-61
2021/09/21 02:45:07;;;;;;;2.30;1.58;;;;;;;7.10;76.62;99536.75;5081172;28;20131;-61
2021/09/21 02:47:33;;;;;;;2.22;1.50;;;;;;;7.31;76.97;99561.00;5083056;28;20047;-62
2021/09/21 02:49:58;;;;;;;1.70;1.55;;;;;;;7.42;75.90;99566.41;5072886;28;20392;-62
2021/09/21 02:52:24;;;;;;;2.03;1.55;;;;;;;7.40;76.29;99559.47;5087099;28;20060;-62
2021/09/21 02:54:49;;;;;;;1.58;1.38;;;;;;;7.50;75.88;99573.00;5075880;28;20035;-61
2021/09/21 02:57:15;;;;;;;2.30;1.77;;;;;;;7.37;75.81;99568.56;5079529;28;20039;-62
2021/09/21 02:59:40;;;;;;;2.10;1.30;;;;;;;7.44;75.73;99564.50;5084226;28;20356;-62
2021/09/21 03:02:06;;;;;;;1.80;1.25;;;;;;;7.42;75.74;99562.88;5074227;28;20029;-62
2021/09/21 03:04:36;;;;;;;2.00;1.30;;;;;;;7.20;75.97;99527.13;5068193;28;20107;-64
2021/09/21 03:07:10;;;;;;;1.90;1.40;;;;;;;7.19;76.02;99533.41;5078951;28;20369;-63
2021/09/21 03:17:27;;;;;;;1.53;1.17;;;;;;;7.49;75.82;99548.19;5077807;28;20095;-63
2021/09/21 03:19:57;;;;;;;2.30;1.35;;;;;;;7.39;75.93;99540.00;5084460;28;20437;-61
2021/09/21 03:22:22;;;;;;;2.22;1.33;;;;;;;7.44;76.14;99560.97;5072302;28;20032;-63
2021/09/21 03:24:49;;;;;;;1.83;1.58;;;;;;;7.45;76.15;99555.53;5093286;28;20038;-61
2021/09/21 03:27:15;;;;;;;1.27;0.90;;;;;;;7.67;74.71;99569.09;5098264;28;20050;-62
2021/09/21 03:29:41;;;;;;;1.30;1.20;;;;;;;7.53;75.44;99544.31;5075799;28;20036;-62
2021/09/21 03:32:06;;;;;;;2.05;1.38;;;;;;;7.55;75.47;99539.75;5069716;28;20024;-63
2021/09/21 03:34:32;;;;;;;2.53;1.50;;;;;;;7.50;75.65;99547.22;5090081;28;20579;-61
2021/09/21 03:36:58;;;;;;;1.52;1.23;;;;;;;7.46;76.17;99564.34;5082130;28;20053;-62
2021/09/21 03:39:24;;;;;;;2.28;1.30;;;;;;;7.50;75.97;99567.66;5081471;28;20036;-62
2021/09/21 03:41:52;;;;;;;2.45;1.48;;;;;;;7.53;75.52;99562.13;5074275;28;20055;-62
2021/09/21 03:44:18;;;;;;;2.08;1.48;;;;;;;7.56;75.79;99551.22;5051676;28;20036;-62
2021/09/21 03:46:43;;;;;;;1.55;1.45;;;;;;;7.52;76.34;99547.97;5075527;28;20024;-63
2021/09/21 03:49:09;;;;;;;2.72;1.52;;;;;;;7.51;76.22;99545.38;5078675;28;20115;-63
2021/09/21 03:51:34;;;;;;;1.75;1.38;;;;;;;7.63;75.56;99557.84;5086592;28;20076;-62
2021/09/21 03:54:00;;;;;;;1.67;1.23;;;;;;;7.61;75.72;99549.94;5088968;28;20075;-61
2021/09/21 03:56:25;;;;;;;1.35;1.25;;;;;;;7.78;74.92;99552.34;5088544;28;20017;-62
2021/09/21 03:58:51;;;;;;;1.70;1.60;;;;;;;7.66;75.18;99543.41;5078952;28;20368;-62
2021/09/21 04:01:16;;;;;;;3.20;1.65;;;;;;;7.50;76.32;99539.22;5081869;28;20055;-62
2021/09/21 04:03:42;;;;;;;2.90;1.60;;;;;;;7.13;76.38;99481.47;5086494;28;20046;-62
2021/09/21 04:06:07;;;;;;;2.17;1.63;;;;;;;7.66;75.93;99544.28;5076185;28;20024;-62
2021/09/21 04:08:34;;;;;;;1.75;1.60;;;;;;;7.62;75.83;99534.81;5088857;28;20104;-62
2021/09/21 04:10:59;;;;;;;2.60;1.52;;;;;;;7.60;75.78;99548.25;5081602;28;20376;-62
2021/09/21 04:13:25;;;;;;;2.40;1.73;;;;;;;7.57;76.47;99531.63;5093243;28;20035;-62
2021/09/21 04:15:50;;;;;;;2.22;1.65;;;;;;;7.59;76.31;99527.88;5077353;28;20380;-63
2021/09/21 04:18:15;;;;;;;1.80;1.50;;;;;;;7.58;76.53;99534.19;5094615;28;20152;-61
2021/09/21 04:20:41;;;;;;;2.42;1.70;;;;;;;7.67;76.16;99519.34;5103294;28;20111;-62
2021/09/21 04:23:08;;;;;;;2.35;1.85;;;;;;;7.70;75.86;99526.25;5091820;28;20110;-61
2021/09/21 04:25:33;;;;;;;1.48;1.23;;;;;;;7.83;75.22;99527.06;5099912;28;20043;-61
2021/09/21 04:27:59;;;;;;;2.03;1.10;;;;;;;7.69;76.22;99535.19;5076562;28;20048;-62
2021/09/21 04:30:25;;;;;;;2.72;1.20;;;;;;;7.68;76.43;99534.38;5076324;28;20460;-61
2021/09/21 04:32:52;;;;;;;1.80;1.38;;;;;;;7.57;75.77;99491.66;5084208;28;20089;-62
2021/09/21 04:35:17;;;;;;;3.22;1.45;;;;;;;7.56;75.83;99496.16;5084558;28;20080;-64
2021/09/21 04:37:43;;;;;;;1.23;1.02;;;;;;;7.86;75.70;99548.13;5077991;28;20041;-61
2021/09/21 04:40:09;;;;;;;1.70;1.60;;;;;;;7.69;75.97;99529.88;5088026;28;20032;-61
2021/09/21 04:42:35;;;;;;;1.50;1.40;;;;;;;7.70;76.22;99539.56;5077697;28;20032;-61
2021/09/21 04:45:02;;;;;;;1.60;1.50;;;;;;;7.71;76.01;99534.13;5084018;28;20025;-61
2021/09/21 04:47:27;;;;;;;2.28;1.50;;;;;;;7.70;76.06;99515.56;5085414;28;20035;-63
2021/09/21 04:49:53;;;;;;;1.52;1.42;;;;;;;7.74;76.14;99528.56;5084189;28;20482;-61
2021/09/21 04:52:20;;;;;;;1.77;1.50;;;;;;;7.72;76.27;99535.00;5090604;28;20025;-61
2021/09/21 04:54:46;;;;;;;2.75;1.50;;;;;;;7.51;76.32;99503.63;5078846;28;20039;-62
2021/09/21 04:57:11;;;;;;;2.83;1.60;;;;;;;7.58;77.03;99528.00;5082277;28;20111;-62
2021/09/21 04:59:36;;;;;;;2.33;1.80;;;;;;;7.72;76.48;99521.69;5085848;28;20077;-61
2021/09/21 05:02:02;;;;;;;1.98;1.77;;;;;;;7.66;76.87;99524.75;5073604;28;20028;-62
2021/09/21 05:04:28;;;;;;;3.20;2.15;;;;;;;7.72;76.54;99530.50;5088151;28;20103;-61
2021/09/21 05:06:53;;;;;;;1.70;1.58;;;;;;;7.80;76.19;99526.41;5079566;28;20035;-60
2021/09/21 05:09:19;;;;;;;1.80;1.60;;;;;;;7.68;76.55;99526.38;5081370;28;20039;-62
2021/09/21 05:11:45;;;;;;;2.88;2.08;;;;;;;7.71;77.49;99534.13;5086409;28;20089;-62
2021/09/21 05:14:12;;;;;;;2.38;2.08;;;;;;;7.57;77.48;99511.16;5075027;28;20033;-62
2021/09/21 05:16:39;;;;;;;2.38;2.00;;;;;;;7.81;76.90;99534.31;5086408;28;20579;-62
2021/09/21 05:19:04;;;;;;;3.88;2.10;;;;;;;7.77;77.01;99546.16;5079786;28;20119;-62
2021/09/21 05:21:30;;;;;;;2.63;2.20;;;;;;;7.61;77.65;99509.13;5078490;28;20123;-62
2021/09/21 05:23:55;;;;;;;4.53;1.88;;;;;;;7.83;77.22;99539.50;5087511;28;20039;-63
2021/09/21 05:26:21;;;;;;;2.38;2.17;;;;;;;7.70;76.72;99504.91;5075179;28;20099;-61
2021/09/21 05:28:47;;;;;;;3.22;2.38;;;;;;;7.85;76.22;99524.28;5084795;28;20453;-62
2021/09/21 05:31:12;;;;;;;3.65;2.10;;;;;;;8.04;75.91;99524.59;5081288;28;20028;-62
2021/09/21 05:33:38;;;;;;;2.40;2.03;;;;;;;7.96;76.28;99540.31;5077794;28;20348;-63
2021/09/21 05:36:04;;;;;;;2.30;2.10;;;;;;;7.89;76.60;99526.59;5089047;28;20071;-67
2021/09/21 05:38:30;;;;;;;3.13;2.47;;;;;;;7.96;76.40;99526.16;5075675;28;20058;-62
2021/09/21 05:40:55;;;;;;;3.65;2.30;;;;;;;8.07;76.41;99535.97;5083414;28;20384;-64
2021/09/21 05:43:21;;;;;;;2.63;2.42;;;;;;;8.03;76.53;99527.38;5082133;28;20039;-64
2021/09/21 05:45:47;;;;;;;4.25;2.30;;;;;;;8.05;76.44;99544.13;5075905;28;20025;-62
2021/09/21 05:48:12;;;;;;;3.05;2.30;;;;;;;8.07;76.39;99526.19;5087529;28;20032;-60
2021/09/21 05:50:38;;;;;;;2.67;2.25;;;;;;;8.08;76.37;99519.88;5076142;28;20027;-63
2021/09/21 05:53:03;;;;;;;3.35;2.72;;;;;;;8.11;76.14;99530.31;5082492;28;20055;-61
2021/09/21 05:55:29;;;;;;;2.50;2.30;;;;;;;8.12;76.24;99532.00;5081982;28;20047;-63
2021/09/21 05:57:55;;;;;;;3.20;2.70;;;;;;;8.10;76.65;99539.28;5056792;28;20090;-63
2021/09/21 06:00:21;;;;;;;3.03;2.72;;;;;;;8.09;76.14;99532.25;5086441;28;20046;-62
2021/09/21 06:02:46;;;;;;;5.40;2.78;;;;;;;8.03;76.88;99528.22;5083787;28;20040;-63
2021/09/21 06:05:12;;;;;;;3.15;2.80;;;;;;;7.90;77.33;99509.63;5079844;28;20085;-63
2021/09/21 06:07:48;;;;;;;5.78;2.90;;;;;;;8.24;76.64;99532.91;5084162;28;20115;-62
2021/09/21 06:10:18;;;;;;;2.63;2.28;;;;;;;8.26;76.32;99540.81;5101566;28;20132;-61
2021/09/21 06:12:44;;;;;;;3.00;2.38;;;;;;;8.26;76.09;99527.47;5084027;28;20515;-60
2021/09/21 06:15:11;;;;;;;3.97;3.22;;;;;;;8.17;76.21;99527.19;5079923;28;20115;-61
2021/09/21 06:17:37;;;;;;;4.40;2.80;;;;;;;8.03;76.36;99506.06;5077555;28;20115;-60
2021/09/21 06:20:05;;;;;;;2.28;2.08;;;;;;;8.10;76.09;99509.13;5087568;28;20460;-65
2021/09/21 06:22:30;;;;;;;4.10;2.63;;;;;;;8.19;76.41;99522.56;5074805;28;20468;-62
2021/09/21 06:24:56;;;;;;;4.10;2.15;;;;;;;8.19;75.79;99511.91;5082618;28;20028;-64
2021/09/21 06:27:22;;;;;;;4.10;2.65;;;;;;;8.28;76.04;99541.53;5081579;28;20106;-61
2021/09/21 06:29:47;;;;;;;3.97;2.40;;;;;;;8.25;76.08;99526.59;5075188;28;20125;-65
2021/09/21 06:32:13;;;;;;;3.13;2.35;;;;;;;8.33;76.01;99520.69;5085821;28;20032;-64
2021/09/21 06:34:38;;;;;;;2.63;2.10;;;;;;;8.24;76.11;99519.56;5077198;28;20111;-61
2021/09/21 06:37:04;;;;;;;2.72;2.10;;;;;;;8.41;75.51;99528.94;5079800;28;20059;-68
2021/09/21 06:39:30;;;;;;;3.03;1.88;;;;;;;8.30;75.94;99523.59;5082378;28;20369;-70
2021/09/21 06:41:55;;;;;;;3.25;2.60;;;;;;;8.38;76.02;99529.19;5073960;28;20472;-70
2021/09/21 06:44:21;;;;;;;8.45;2.45;;;;;;;8.33;75.54;99515.34;5086586;28;20024;-70
2021/09/21 06:46:46;;;;;;;3.65;2.60;;;;;;;8.35;76.07;99510.75;5076529;28;20024;-70
2021/09/21 06:49:12;;;;;;;2.30;2.00;;;;;;;8.42;75.91;99543.97;5078146;28;20028;-69
2021/09/21 06:51:38;;;;;;;3.88;2.20;;;;;;;8.42;76.01;99533.31;5083601;28;20028;-69
2021/09/21 06:54:04;;;;;;;3.65;2.38;;;;;;;8.35;76.27;99531.25;5072551;28;20032;-69
2021/09/21 06:56:29;;;;;;;3.88;2.53;;;;;;;8.36;76.45;99523.13;5083613;28;20107;-72
2021/09/21 06:58:56;;;;;;;4.45;2.30;;;;;;;8.45;76.20;99545.59;5080989;28;20032;-71
2021/09/21 07:01:23;;;;;;;3.45;2.45;;;;;;;8.41;76.33;99525.44;5087475;28;20064;-70
2021/09/21 07:03:49;;;;;;;3.60;2.38;;;;;;;8.47;76.02;99525.84;5082823;28;20426;-70
2021/09/21 07:06:14;;;;;;;3.25;2.78;;;;;;;8.44;75.91;99535.88;5086462;28;20039;-71
2021/09/21 07:08:40;;;;;;;4.07;2.60;;;;;;;8.40;77.00;99543.25;5057515;28;20024;-70
2021/09/21 07:11:06;;;;;;;6.03;2.53;;;;;;;8.44;75.73;99531.41;5079789;28;20033;-71
2021/09/21 07:13:31;;;;;;;4.75;2.92;;;;;;;8.50;75.31;99540.78;5064800;28;20094;-71
2021/09/21 07:15:57;;;;;;;4.10;2.60;;;;;;;8.37;76.27;99532.00;5082391;28;20036;-70
2021/09/21 07:18:22;;;;;;;5.72;2.47;;;;;;;8.36;76.26;99543.63;5086839;28;20111;-71
2021/09/21 07:20:48;;;;;;;4.03;2.45;;;;;;;8.36;76.29;99535.63;5075424;28;20051;-71
2021/09/21 07:23:13;;;;;;;9.63;2.80;;;;;;;8.31;76.26;99536.78;5080185;28;20353;-71
2021/09/21 07:25:39;;;;;;;3.38;2.38;;;;;;;8.35;76.46;99541.94;5084694;28;20078;-70
2021/09/21 07:28:05;;;;;;;4.88;2.40;;;;;;;8.39;76.33;99546.06;5077138;28;20071;-71
2021/09/21 07:30:32;;;;;;;6.50;2.60;;;;;;;8.38;76.50;99561.19;5089783;28;20020;-75
2021/09/21 07:32:57;;;;;;;5.97;2.60;;;;;;;8.34;76.30;99541.06;5082312;28;20276;-71
2021/09/21 07:35:23;;;;;;;2.72;2.00;;;;;;;8.41;75.43;99557.47;5092267;28;20493;-74
2021/09/21 07:37:49;;;;;;;4.13;2.45;;;;;;;8.23;76.21;99546.38;5094421;28;20043;-72
2021/09/21 07:40:16;;;;;;;4.05;2.17;;;;;;;8.27;76.46;99545.16;5075630;28;20380;-71
2021/09/21 07:42:42;;;;;;;4.22;2.40;;;;;;;8.28;76.27;99545.03;5086898;28;20024;-71
2021/09/21 07:45:09;;;;;;;6.18;3.30;;;;;;;8.26;76.89;99536.31;5081704;28;20478;-70
2021/09/21 07:47:35;;;;;;;5.35;2.78;;;;;;;8.31;76.86;99523.47;5062533;28;20028;-71
2021/09/21 07:50:00;;;;;;;2.97;2.58;;;;;;;8.37;76.82;99529.31;5075592;28;20030;-69
2021/09/21 07:52:26;;;;;;;3.28;2.47;;;;;;;8.44;76.60;99538.53;5092163;28;20081;-71
2021/09/21 07:54:52;;;;;;;3.47;2.72;;;;;;;8.42;76.28;99535.16;5068169;28;20048;-72
2021/09/21 07:57:18;;;;;;;5.68;2.47;;;;;;;8.42;76.31;99535.16;5082507;28;20106;-71
2021/09/21 07:59:44;;;;;;;4.90;2.75;;;;;;;8.36;76.78;99533.78;5078876;28;20024;-74
2021/09/21 08:02:11;;;;;;;7.25;2.60;;;;;;;8.22;76.35;99496.66;5089229;28;20055;-72
2021/09/21 08:04:39;;;;;;;3.97;2.58;;;;;;;8.50;76.11;99531.94;5079120;28;20157;-71
2021/09/21 08:07:09;;;;;;;3.03;2.13;;;;;;;8.39;76.56;99528.22;5083359;28;20377;-71
2021/09/21 08:09:36;;;;;;;4.45;2.08;;;;;;;8.42;76.21;99532.47;5077482;28;20089;-71
2021/09/21 08:12:03;;;;;;;2.92;2.28;;;;;;;8.40;76.71;99535.25;5090106;28;20031;-70
2021/09/21 08:14:28;;;;;;;3.28;2.20;;;;;;;8.42;76.43;99554.66;5086220;28;20032;-70
2021/09/21 08:16:55;;;;;;;3.58;2.30;;;;;;;8.44;76.25;99536.75;5080166;28;20040;-70
2021/09/21 08:19:20;;;;;;;4.97;2.13;;;;;;;8.40;76.31;99535.25;5080622;28;20024;-71
2021/09/21 08:21:46;;;;;;;2.00;1.55;;;;;;;8.54;75.94;99526.22;5087222;28;20320;-71
2021/09/21 08:24:13;;;;;;;4.30;2.20;;;;;;;8.34;76.76;99519.72;5086224;28;20036;-72
2021/09/21 08:26:38;;;;;;;3.58;2.30;;;;;;;8.44;76.30;99528.75;5088561;28;20078;-71
2021/09/21 08:29:04;;;;;;;2.90;2.25;;;;;;;8.43;76.27;99519.00;5083606;28;20036;-71
2021/09/21 08:31:29;;;;;;;2.92;2.45;;;;;;;8.40;76.78;99508.56;5065203;28;20032;-71
2021/09/21 08:33:55;;;;;;;4.43;2.60;;;;;;;8.53;76.27;99521.84;5076126;28;20029;-70
2021/09/21 08:36:20;;;;;;;5.82;3.30;;;;;;;8.51;75.88;99520.28;5089030;28;20045;-71
2021/09/21 08:38:46;;;;;;;5.22;2.95;;;;;;;8.51;76.97;99528.28;5078968;28;20038;-71
2021/09/21 08:41:12;;;;;;;5.10;3.40;;;;;;;8.55;77.04;99519.91;5081279;28;20392;-72
2021/09/21 08:43:37;;;;;;;4.93;2.78;;;;;;;8.59;76.21;99528.53;5064883;28;20020;-70
2021/09/21 08:46:03;;;;;;;5.32;3.20;;;;;;;8.64;76.12;99531.69;5087974;28;20028;-71
2021/09/21 08:48:29;;;;;;;5.45;3.45;;;;;;;8.60;75.97;99524.91;5076846;28;20106;-71
2021/09/21 08:50:55;;;;;;;3.20;2.90;;;;;;;8.60;76.20;99524.91;5083588;28;20035;-71
2021/09/21 08:53:20;;;;;;;3.40;2.55;;;;;;;8.54;76.12;99533.38;5087934;28;20024;-71
2021/09/21 08:55:46;;;;;;;4.75;2.83;;;;;;;8.72;75.14;99542.66;5076100;28;20060;-71
2021/09/21 08:58:13;;;;;;;6.22;2.80;;;;;;;8.64;75.33;99523.69;5087023;28;20541;-69
2021/09/21 09:00:38;;;;;;;8.48;3.28;;;;;;;8.52;75.53;99525.50;5077388;28;20028;-70
2021/09/21 09:03:06;;;;;;;4.20;3.10;;;;;;;8.52;76.54;99528.16;5081800;28;20039;-72
2021/09/21 09:05:47;;;;;;;4.15;3.08;;;;;;;8.73;76.33;99549.69;5065949;28;20468;-70
2021/09/21 09:08:13;;;;;;;4.38;2.70;;;;;;;8.59;75.73;99544.56;5073789;28;20187;-70
2021/09/21 09:10:38;;;;;;;5.00;3.35;;;;;;;8.62;75.04;99530.97;5085255;28;20036;-71
2021/09/21 09:13:05;;;;;;;4.85;2.90;;;;;;;8.61;75.49;99542.59;5062698;28;20163;-70
2021/09/21 09:15:31;;;;;;;5.70;3.17;;;;;;;8.43;75.47;99503.00;5077012;28;20056;-70
2021/09/21 09:18:00;;;;;;;4.82;3.08;;;;;;;8.65;76.24;99541.41;5088014;28;20889;-70
2021/09/21 09:20:34;;;;;;;3.63;3.00;;;;;;;8.75;75.79;99542.41;5071360;28;20025;-71
2021/09/21 09:23:01;;;;;;;4.73;3.17;;;;;;;8.73;75.52;99543.47;5078636;28;20031;-72
2021/09/21 09:25:26;;;;;;;4.95;3.17;;;;;;;8.69;75.72;99545.56;5078956;28;20720;-70
2021/09/21 09:27:52;;;;;;;3.53;3.00;;;;;;;8.87;74.58;99534.41;5085673;28;20023;-72
2021/09/21 09:30:23;;;;;;;4.35;3.22;;;;;;;8.90;74.39;99539.50;5056264;28;20029;-71
2021/09/21 09:32:54;;;;;;;7.80;3.28;;;;;;;8.75;75.19;99542.41;5050517;28;20020;-72
2021/09/21 09:35:31;;;;;;;5.18;2.72;;;;;;;8.82;74.30;99544.59;5081511;28;20456;-70
2021/09/21 09:38:01;;;;;;;7.72;3.60;;;;;;;8.67;74.44;99525.28;5073619;28;20148;-71
2021/09/21 09:40:29;;;;;;;3.30;2.55;;;;;;;8.76;74.15;99543.25;5054084;28;20811;-70
2021/09/21 09:42:55;;;;;;;3.63;3.00;;;;;;;8.68;73.93;99554.53;5083621;28;20653;-71
2021/09/21 09:45:33;;;;;;;5.75;2.97;;;;;;;8.82;74.15;99568.63;5080802;28;20032;-71
2021/09/21 09:47:59;;;;;;;3.75;2.70;;;;;;;8.58;74.77;99545.53;5056112;28;20059;-72
2021/09/21 09:50:31;;;;;;;5.32;3.17;;;;;;;8.60;74.46;99543.59;5056594;28;20426;-70
2021/09/21 09:53:13;;;;;;;3.28;1.38;;;;;;;8.85;74.05;99549.69;5081752;28;20029;-71
2021/09/21 09:55:40;;;;;;;3.90;2.75;;;;;;;8.67;73.91;99551.97;5085039;28;20035;-71
2021/09/21 09:58:07;;;;;;;2.72;2.40;;;;;;;8.67;73.85;99559.97;5073488;28;20028;-70
2021/09/21 10:00:35;;;;;;;3.15;2.70;;;;;;;8.66;74.30;99561.78;5085362;28;20032;-71
2021/09/21 10:03:01;;;;;;;8.55;3.40;;;;;;;8.63;74.19;99555.84;5076906;28;20051;-69
2021/09/21 10:05:30;;;;;;;5.60;3.08;;;;;;;8.62;74.15;99560.31;5058207;28;20107;-72
2021/09/21 10:07:57;;;;;;;3.60;2.70;;;;;;;8.60;74.25;99564.94;5056601;28;20468;-71
2021/09/21 10:10:26;;;;;;;4.88;2.85;;;;;;;8.64;73.79;99579.72;5083737;28;20028;-71
2021/09/21 10:12:53;;;;;;;4.40;3.03;;;;;;;8.55;74.46;99567.94;5076569;28;20116;-71
2021/09/21 10:15:20;;;;;;;7.53;3.30;;;;;;;8.55;74.70;99569.78;5078347;28;20074;-71
2021/09/21 10:17:54;;;;;;;2.88;2.63;;;;;;;8.58;74.74;99567.72;5085106;28;20028;-71
2021/09/21 10:20:22;;;;;;;2.83;2.05;;;;;;;8.76;73.98;99562.78;5077927;28;20038;-72
2021/09/21 10:22:53;;;;;;;3.65;2.95;;;;;;;8.75;73.77;99569.09;5082581;28;20036;-72
2021/09/21 10:25:27;;;;;;;3.83;3.10;;;;;;;8.62;74.38;99549.66;5079506;28;20532;-72
2021/09/21 10:27:53;;;;;;;7.03;3.00;;;;;;;8.59;74.70;99572.09;5074628;28;20024;-72
2021/09/21 10:30:28;;;;;;;5.53;3.15;;;;;;;8.69;74.16;99564.25;5086649;28;20030;-71
2021/09/21 10:32:54;;;;;;;8.18;3.58;;;;;;;8.65;74.29;99554.75;5076539;28;20034;-73
2021/09/21 10:35:22;;;;;;;4.00;3.22;;;;;;;8.35;73.08;99485.91;5088903;28;20032;-71
2021/09/21 10:38:02;;;;;;;4.13;2.78;;;;;;;8.71;73.73;99551.63;5082660;28;20071;-71
2021/09/21 10:40:40;;;;;;;3.50;3.20;;;;;;;8.43;74.37;99523.50;5074085;28;20469;-72
2021/09/21 10:43:20;;;;;;;4.88;3.40;;;;;;;8.68;73.85;99562.53;5089564;28;20453;-71
2021/09/21 10:45:46;;;;;;;3.80;3.17;;;;;;;8.51;73.66;99539.78;5073339;28;20051;-72
2021/09/21 10:48:19;;;;;;;3.85;3.28;;;;;;;8.70;73.96;99565.94;5086489;28;20472;-71
2021/09/21 10:50:52;;;;;;;5.47;3.15;;;;;;;8.78;73.23;99586.69;5076501;28;20028;-71
2021/09/21 10:53:21;;;;;;;3.72;3.05;;;;;;;8.58;74.02;99572.22;5078117;28;20379;-70
2021/09/21 10:56:05;;;;;;;3.63;3.22;;;;;;;8.57;73.95;99557.16;5083720;28;20046;-70
2021/09/21 10:58:31;;;;;;;4.97;3.47;;;;;;;8.36;73.94;99544.47;5074239;28;20071;-71
2021/09/21 11:00:57;;;;;;;4.70;3.58;;;;;;;8.54;74.16;99576.09;5080433;28;20025;-71
2021/09/21 11:03:25;;;;;;;6.00;4.00;;;;;;;8.32;74.92;99545.66;5082396;28;20032;-71
2021/09/21 11:05:50;;;;;;;7.57;3.78;;;;;;;8.26;75.40;99528.31;5073405;28;20040;-72
2021/09/21 11:08:18;;;;;;;6.88;4.18;;;;;;;8.46;76.02;99565.97;5086872;28;20024;-71
2021/09/21 11:10:48;;;;;;;6.05;4.00;;;;;;;8.60;75.41;99565.78;5058110;28;20097;-73
2021/09/21 11:13:34;;;;;;;5.55;3.60;;;;;;;8.56;74.57;99544.78;5080631;28;20367;-70
2021/09/21 11:16:02;;;;;;;3.97;3.08;;;;;;;8.66;75.12;99563.63;5069932;28;20041;-73
2021/09/21 11:18:29;;;;;;;4.32;3.13;;;;;;;8.66;74.24;99564.44;5070708;28;20058;-72
2021/09/21 11:21:01;;;;;;;6.43;3.13;;;;;;;8.72;74.62;99572.00;5062140;28;20460;-74
2021/09/21 11:23:32;;;;;;;3.72;2.72;;;;;;;8.61;74.16;99542.59;5080131;28;20037;-74
2021/09/21 11:26:00;;;;;;;4.15;3.30;;;;;;;8.69;73.91;99579.38;5071121;28;20029;-74
2021/09/21 11:28:29;;;;;;;3.92;3.00;;;;;;;8.65;73.97;99581.44;5070410;28;20093;-75
2021/09/21 11:30:56;;;;;;;6.07;3.15;;;;;;;8.58;74.14;99564.19;5072078;28;20090;-72
2021/09/21 11:33:29;;;;;;;3.95;3.20;;;;;;;8.62;73.86;99560.31;5056477;28;20067;-73
2021/09/21 11:35:58;;;;;;;4.43;3.45;;;;;;;8.61;74.78;99569.31;5078382;28;20074;-72
2021/09/21 11:38:28;;;;;;;4.45;3.58;;;;;;;8.47;74.72;99523.16;5053190;28;20119;-74
2021/09/21 11:40:54;;;;;;;4.30;3.22;;;;;;;8.72;73.96;99564.00;5078736;28;20105;-73
2021/09/21 11:43:20;;;;;;;3.70;3.17;;;;;;;8.67;73.86;99558.16;5060563;28;20063;-73
2021/09/21 11:45:48;;;;;;;3.70;3.35;;;;;;;8.67;74.31;99565.31;5072080;28;20052;-73
2021/09/21 11:48:14;;;;;;;5.30;3.40;;;;;;;8.54;74.95;99563.56;5066810;28;20020;-74
2021/09/21 11:50:41;;;;;;;4.60;3.22;;;;;;;8.56;74.59;99566.13;5081956;28;20035;-72
2021/09/21 11:53:15;;;;;;;4.70;3.15;;;;;;;8.59;74.73;99555.22;5058833;28;20527;-74